Time;durP1;ratioP1;P1;durP2;ratioP2;P2;SDS_P1;SDS_P2;PMS_P1;PMS_P2;Temp;Humidity;BMP_temperature;BMP_pressure;BME280_temperature;BME280_humidity;BME280_pressure;Samples;Min_cycle;Max_cycle;Signal;HPM_P1;HPM_P2
2021/10/12 00:01:11;;;;;;;;;;;17.80;62.90;;;;;;5033836;28;19931;-61
2021/10/12 00:03:37;;;;;;;;;;;17.80;62.90;;;;;;5030224;28;20602;-61
2021/10/12 00:06:02;;;;;;;;;;;17.80;62.90;;;;;;5033227;28;20320;-62
2021/10/12 00:08:28;;;;;;;;;;;17.80;62.80;;;;;;5037384;28;20012;-62
2021/10/12 00:10:53;;;;;;;;;;;17.70;62.90;;;;;;5033509;28;19917;-61
2021/10/12 00:13:18;;;;;;;;;;;17.80;62.90;;;;;;5035946;28;19921;-59
2021/10/12 00:15:44;;;;;;;;;;;17.80;62.90;;;;;;5036512;28;19962;-61
2021/10/12 00:18:10;;;;;;;;;;;17.80;62.90;;;;;;5030923;28;19928;-59
2021/10/12 00:20:35;;;;;;;;;;;17.70;62.90;;;;;;5038726;28;19917;-59
2021/10/12 00:23:00;;;;;;;;;;;17.80;63.00;;;;;;5036551;28;20324;-60
2021/10/12 00:25:26;;;;;;;;;;;17.80;62.90;;;;;;5052700;28;19994;-62
2021/10/12 00:27:51;;;;;;;;;;;17.80;62.80;;;;;;5032241;28;19917;-59
2021/10/12 00:30:17;;;;;;;;;;;17.80;62.80;;;;;;5035818;28;20325;-59
2021/10/12 00:32:42;;;;;;;;;;;17.80;62.80;;;;;;5012692;28;19928;-61
2021/10/12 00:35:08;;;;;;;;;;;17.80;62.90;;;;;;5037052;28;19921;-62
2021/10/12 00:37:33;;;;;;;;;;;17.80;62.80;;;;;;5036946;28;19917;-61
2021/10/12 00:39:59;;;;;;;;;;;17.80;62.80;;;;;;5040027;28;20298;-60
2021/10/12 00:42:24;;;;;;;;;;;17.80;62.80;;;;;;5040743;28;19917;-61
2021/10/12 00:44:50;;;;;;;;;;;17.80;62.80;;;;;;5041583;28;19967;-59
2021/10/12 00:47:15;;;;;;;;;;;17.80;62.80;;;;;;5017451;28;20381;-61
2021/10/12 00:49:40;;;;;;;;;;;17.80;62.80;;;;;;5042043;28;19948;-61
2021/10/12 00:52:06;;;;;;;;;;;17.80;62.80;;;;;;5042814;28;19936;-59
2021/10/12 00:54:31;;;;;;;;;;;17.80;62.70;;;;;;5035918;28;19918;-60
2021/10/12 00:56:57;;;;;;;;;;;17.80;62.80;;;;;;5036493;28;20398;-59
2021/10/12 00:59:22;;;;;;;;;;;17.80;62.80;;;;;;5023896;28;19921;-60
2021/10/12 01:01:48;;;;;;;;;;;17.80;62.70;;;;;;5037488;28;19923;-60
2021/10/12 01:04:13;;;;;;;;;;;17.80;62.70;;;;;;5041119;28;19924;-59
2021/10/12 01:06:38;;;;;;;;;;;17.80;62.70;;;;;;5035554;28;19944;-59
2021/10/12 01:09:04;;;;;;;;;;;17.80;62.70;;;;;;5033588;28;19925;-60
2021/10/12 01:11:30;;;;;;;;;;;17.80;62.70;;;;;;5041574;28;19925;-59
2021/10/12 01:13:55;;;;;;;;;;;17.80;62.70;;;;;;5020014;28;20364;-62
2021/10/12 01:16:21;;;;;;;;;;;17.80;62.70;;;;;;5020199;28;19967;-59
2021/10/12 01:18:56;;;;;;;;;;;17.80;62.70;;;;;;5019971;28;19917;-61
2021/10/12 01:21:22;;;;;;;;;;;17.80;62.60;;;;;;5039833;28;20294;-61
2021/10/12 01:23:48;;;;;;;;;;;17.80;62.60;;;;;;5035671;28;20418;-63
2021/10/12 01:26:13;;;;;;;;;;;17.80;62.60;;;;;;5039927;28;19921;-60
2021/10/12 01:28:40;;;;;;;;;;;17.80;62.60;;;;;;5036798;28;20479;-62
2021/10/12 01:31:05;;;;;;;;;;;17.80;62.70;;;;;;5030842;28;20245;-62
2021/10/12 01:33:31;;;;;;;;;;;17.80;62.60;;;;;;5040874;28;19988;-60
2021/10/12 01:35:56;;;;;;;;;;;17.80;62.60;;;;;;5033917;28;19959;-59
2021/10/12 01:38:22;;;;;;;;;;;17.80;62.60;;;;;;5034679;28;19936;-60
2021/10/12 01:40:47;;;;;;;;;;;17.80;62.60;;;;;;5038822;28;20424;-58
2021/10/12 01:43:13;;;;;;;;;;;17.80;62.60;;;;;;5038476;28;19970;-60
2021/10/12 01:45:38;;;;;;;;;;;17.80;62.50;;;;;;5038444;28;19925;-61
2021/10/12 01:48:04;;;;;;;;;;;17.80;63.20;;;;;;5022325;28;19921;-57
2021/10/12 01:50:29;;;;;;;;;;;17.80;62.60;;;;;;5036131;28;19995;-59
2021/10/12 01:52:55;;;;;;;;;;;17.80;62.60;;;;;;5038587;28;19917;-61
2021/10/12 01:55:22;;;;;;;;;;;17.80;62.50;;;;;;5039783;28;21316;-62
2021/10/12 01:57:47;;;;;;;;;;;17.80;62.50;;;;;;5037560;28;19924;-62
2021/10/12 02:00:13;;;;;;;;;;;17.80;62.50;;;;;;5036927;28;19925;-60
2021/10/12 02:02:38;;;;;;;;;;;17.80;62.50;;;;;;5040107;28;19928;-60
2021/10/12 02:05:04;;;;;;;;;;;17.80;62.50;;;;;;5037530;28;19917;-61
2021/10/12 02:07:29;;;;;;;;;;;17.80;62.60;;;;;;5040142;28;19917;-58
2021/10/12 02:09:55;;;;;;;;;;;17.80;62.50;;;;;;5038196;28;19924;-60
2021/10/12 02:12:20;;;;;;;;;;;17.80;62.60;;;;;;5033584;28;20031;-59
2021/10/12 02:14:46;;;;;;;;;;;17.80;62.60;;;;;;5038997;28;19939;-60
2021/10/12 02:17:11;;;;;;;;;;;17.80;62.60;;;;;;5030307;28;19917;-60
2021/10/12 02:19:37;;;;;;;;;;;17.80;62.70;;;;;;5019252;28;19917;-59
2021/10/12 02:22:02;;;;;;;;;;;17.70;62.60;;;;;;5028114;28;19925;-59
2021/10/12 02:24:27;;;;;;;;;;;17.80;62.70;;;;;;5035181;28;19924;-61
2021/10/12 02:26:53;;;;;;;;;;;17.80;62.60;;;;;;5036144;28;19947;-61
2021/10/12 02:29:18;;;;;;;;;;;17.80;62.60;;;;;;5038640;28;19916;-61
2021/10/12 02:31:44;;;;;;;;;;;17.80;62.70;;;;;;5037113;28;19916;-61
2021/10/12 02:34:09;;;;;;;;;;;17.80;62.60;;;;;;5037808;28;20447;-60
2021/10/12 02:36:35;;;;;;;;;;;17.80;62.60;;;;;;5041054;28;19920;-61
2021/10/12 02:39:00;;;;;;;;;;;17.70;62.60;;;;;;5033189;28;19917;-59
2021/10/12 02:41:26;;;;;;;;;;;17.80;62.70;;;;;;5035395;28;19921;-60
2021/10/12 02:43:51;;;;;;;;;;;17.80;62.70;;;;;;5036529;28;20405;-61
2021/10/12 02:46:17;;;;;;;;;;;17.80;62.60;;;;;;5037000;28;19920;-61
2021/10/12 02:48:42;;;;;;;;;;;17.80;62.60;;;;;;5038681;28;19921;-59
2021/10/12 02:51:07;;;;;;;;;;;17.80;62.60;;;;;;5039590;28;19923;-60
2021/10/12 02:53:33;;;;;;;;;;;17.80;62.60;;;;;;5034079;28;19924;-60
2021/10/12 02:55:58;;;;;;;;;;;17.80;62.60;;;;;;5039685;28;20996;-59
2021/10/12 02:58:24;;;;;;;;;;;17.80;62.60;;;;;;5038374;28;19916;-61
2021/10/12 03:00:49;;;;;;;;;;;17.80;62.50;;;;;;5035214;28;19921;-60
2021/10/12 03:03:15;;;;;;;;;;;17.80;62.50;;;;;;5025050;28;19967;-61
2021/10/12 03:05:43;;;;;;;;;;;17.80;62.40;;;;;;5032118;28;20404;-61
2021/10/12 03:08:09;;;;;;;;;;;17.80;62.40;;;;;;5035804;28;20012;-59
2021/10/12 03:10:34;;;;;;;;;;;17.80;62.50;;;;;;5027222;28;21261;-61
2021/10/12 03:13:00;;;;;;;;;;;17.80;62.40;;;;;;5031448;28;19929;-59
2021/10/12 03:15:25;;;;;;;;;;;17.80;62.40;;;;;;5018062;28;20475;-59
2021/10/12 03:17:50;;;;;;;;;;;17.80;62.40;;;;;;5035462;28;19917;-60
2021/10/12 03:20:19;;;;;;;;;;;17.80;62.40;;;;;;5035597;28;19923;-59
2021/10/12 03:22:44;;;;;;;;;;;17.80;62.40;;;;;;5036795;28;19963;-60
2021/10/12 03:25:10;;;;;;;;;;;17.80;62.40;;;;;;5033802;28;19920;-60
2021/10/12 03:27:35;;;;;;;;;;;17.80;62.30;;;;;;5035924;28;19917;-60
2021/10/12 03:30:01;;;;;;;;;;;17.80;62.30;;;;;;5020867;28;19925;-60
2021/10/12 03:32:26;;;;;;;;;;;17.80;62.30;;;;;;5038133;28;19917;-60
2021/10/12 03:34:51;;;;;;;;;;;17.80;62.30;;;;;;5038851;28;20377;-61
2021/10/12 03:37:17;;;;;;;;;;;17.80;62.30;;;;;;5036481;28;19916;-59
2021/10/12 03:39:42;;;;;;;;;;;17.80;62.30;;;;;;5039043;28;19943;-61
2021/10/12 03:42:08;;;;;;;;;;;17.80;62.20;;;;;;5036211;28;19931;-61
2021/10/12 03:44:33;;;;;;;;;;;17.80;62.20;;;;;;5035070;28;19955;-60
2021/10/12 03:46:59;;;;;;;;;;;17.80;62.30;;;;;;5036577;28;21751;-60
2021/10/12 03:49:24;;;;;;;;;;;17.80;62.20;;;;;;5032288;28;19917;-60
2021/10/12 03:51:50;;;;;;;;;;;17.80;62.20;;;;;;5033788;28;19967;-59
2021/10/12 03:54:15;;;;;;;;;;;17.80;62.20;;;;;;5039425;28;19923;-60
2021/10/12 03:56:40;;;;;;;;;;;17.80;62.20;;;;;;5030882;28;20373;-61
2021/10/12 03:59:06;;;;;;;;;;;17.80;62.20;;;;;;5032219;28;19928;-61
2021/10/12 04:01:31;;;;;;;;;;;17.80;62.30;;;;;;5039260;28;20008;-59
2021/10/12 04:03:57;;;;;;;;;;;17.80;62.30;;;;;;5037439;28;19917;-61
2021/10/12 04:06:23;;;;;;;;;;;17.80;62.20;;;;;;5048394;28;19928;-61
2021/10/12 04:08:48;;;;;;;;;;;17.80;62.20;;;;;;5037557;28;20271;-62
2021/10/12 04:11:13;;;;;;;;;;;17.80;62.20;;;;;;5053190;28;19964;-60
2021/10/12 04:13:39;;;;;;;;;;;17.80;62.20;;;;;;5034764;28;19979;-58
2021/10/12 04:16:04;;;;;;;;;;;17.80;62.30;;;;;;5036207;28;19924;-58
2021/10/12 04:18:30;;;;;;;;;;;17.80;62.20;;;;;;5019529;28;19924;-60
2021/10/12 04:20:55;;;;;;;;;;;17.80;62.30;;;;;;5037911;28;19916;-59
2021/10/12 04:23:21;;;;;;;;;;;17.80;62.30;;;;;;5032625;28;19917;-60
2021/10/12 04:25:47;;;;;;;;;;;17.80;62.30;;;;;;5037030;28;19921;-62
2021/10/12 04:28:13;;;;;;;;;;;17.80;62.40;;;;;;5031051;28;19920;-60
2021/10/12 04:30:39;;;;;;;;;;;17.80;62.30;;;;;;5031070;28;19927;-61
2021/10/12 04:33:04;;;;;;;;;;;17.80;62.30;;;;;;5028349;28;20374;-59
2021/10/12 04:35:29;;;;;;;;;;;17.80;62.20;;;;;;5031055;28;19924;-61
2021/10/12 04:37:55;;;;;;;;;;;17.80;62.30;;;;;;5049431;23;19932;-58
2021/10/12 04:40:20;;;;;;;;;;;17.80;62.30;;;;;;5019778;28;20283;-54
2021/10/12 04:42:46;;;;;;;;;;;17.80;62.50;;;;;;5036457;28;20235;-60
2021/10/12 04:45:11;;;;;;;;;;;17.70;63.20;;;;;;5033836;28;19921;-57
2021/10/12 04:47:38;;;;;;;;;;;17.70;63.50;;;;;;5030581;28;19940;-57
2021/10/12 04:50:04;;;;;;;;;;;17.70;63.70;;;;;;5030626;28;19917;-60
2021/10/12 04:52:29;;;;;;;;;;;17.70;63.70;;;;;;5035004;28;20320;-60
2021/10/12 04:54:55;;;;;;;;;;;17.80;63.70;;;;;;5029103;28;19921;-55
2021/10/12 04:57:20;;;;;;;;;;;17.70;63.60;;;;;;5037698;28;20054;-59
2021/10/12 04:59:46;;;;;;;;;;;17.70;63.40;;;;;;5041823;28;19917;-58
2021/10/12 05:02:11;;;;;;;;;;;17.70;63.40;;;;;;5037217;28;19955;-58
2021/10/12 05:04:37;;;;;;;;;;;17.70;63.40;;;;;;5030655;28;20386;-58
2021/10/12 05:07:02;;;;;;;;;;;17.80;63.20;;;;;;5033396;28;19990;-59
2021/10/12 05:09:27;;;;;;;;;;;17.80;63.20;;;;;;5040405;28;19932;-58
2021/10/12 05:11:53;;;;;;;;;;;17.80;63.00;;;;;;5028726;28;19917;-58
2021/10/12 05:14:19;;;;;;;;;;;17.80;63.20;;;;;;5031467;28;20298;-60
2021/10/12 05:16:44;;;;;;;;;;;17.70;64.00;;;;;;5027406;28;19924;-60
2021/10/12 05:19:10;;;;;;;;;;;17.70;64.40;;;;;;5033042;28;19916;-58
2021/10/12 05:21:37;;;;;;;;;;;17.70;64.70;;;;;;5032254;28;20004;-59
2021/10/12 05:24:02;;;;;;;;;;;17.70;65.00;;;;;;5042650;28;20102;-57
2021/10/12 05:26:27;;;;;;;;;;;17.70;65.00;;;;;;5042777;28;19917;-60
2021/10/12 05:28:53;;;;;;;;;;;17.70;65.20;;;;;;5044020;28;20267;-59
2021/10/12 05:31:19;;;;;;;;;;;17.80;65.10;;;;;;5044393;28;19956;-56
2021/10/12 05:33:45;;;;;;;;;;;17.80;64.90;;;;;;5044206;28;19920;-59
2021/10/12 05:36:10;;;;;;;;;;;17.80;65.20;;;;;;5045492;28;19916;-58
2021/10/12 05:38:36;;;;;;;;;;;17.80;64.00;;;;;;5047543;28;19923;-58
2021/10/12 05:41:01;;;;;;;;;;;17.80;63.50;;;;;;5048766;28;19947;-57
2021/10/12 05:43:27;;;;;;;;;;;17.80;63.10;;;;;;5045311;28;19912;-57
2021/10/12 05:45:52;;;;;;;;;;;17.80;62.80;;;;;;5038371;28;19917;-58
2021/10/12 05:48:18;;;;;;;;;;;17.80;62.50;;;;;;5044781;28;19917;-59
2021/10/12 05:50:46;;;;;;;;;;;17.80;62.20;;;;;;5044067;28;20570;-59
2021/10/12 05:53:24;;;;;;;;;;;17.80;62.10;;;;;;5045486;28;20158;-60
2021/10/12 05:56:08;;;;;;;;;;;17.80;62.10;;;;;;5043042;28;19920;-57
2021/10/12 05:58:49;;;;;;;;;;;17.80;61.80;;;;;;5042583;28;20436;-58
2021/10/12 06:01:14;;;;;;;;;;;17.80;61.60;;;;;;5043820;28;20007;-59
2021/10/12 06:03:39;;;;;;;;;;;17.80;61.60;;;;;;5045098;28;20552;-59
2021/10/12 06:06:05;;;;;;;;;;;17.80;61.60;;;;;;5042589;28;19916;-56
2021/10/12 06:08:31;;;;;;;;;;;17.80;61.50;;;;;;5044622;28;19919;-57
2021/10/12 06:10:57;;;;;;;;;;;17.80;61.30;;;;;;5044466;28;19962;-56
2021/10/12 06:13:23;;;;;;;;;;;17.90;61.40;;;;;;5053236;23;19974;-59
2021/10/12 06:15:48;;;;;;;;;;;17.90;61.60;;;;;;5033485;28;19932;-60
2021/10/12 06:18:14;;;;;;;;;;;17.90;61.60;;;;;;5020996;28;19917;-59
2021/10/12 06:20:39;;;;;;;;;;;17.90;61.70;;;;;;5022416;28;19920;-60
2021/10/12 06:23:05;;;;;;;;;;;17.90;61.70;;;;;;5019805;28;20137;-59
2021/10/12 06:25:30;;;;;;;;;;;17.90;61.70;;;;;;5001872;28;19953;-60
2021/10/12 06:27:56;;;;;;;;;;;17.90;61.80;;;;;;5018508;28;20352;-59
2021/10/12 06:30:21;;;;;;;;;;;17.80;61.80;;;;;;5019901;28;19917;-60
2021/10/12 06:32:47;;;;;;;;;;;17.90;61.90;;;;;;5019289;28;19925;-60
2021/10/12 06:35:12;;;;;;;;;;;17.80;61.90;;;;;;5017240;28;19939;-60
2021/10/12 06:37:37;;;;;;;;;;;17.80;61.60;;;;;;5020450;28;20403;-59
2021/10/12 06:40:03;;;;;;;;;;;17.80;61.50;;;;;;5019840;28;19938;-59
2021/10/12 06:42:29;;;;;;;;;;;17.80;61.50;;;;;;5020574;28;19913;-63
2021/10/12 06:44:54;;;;;;;;;;;17.80;61.50;;;;;;5020395;28;19917;-59
2021/10/12 06:47:19;;;;;;;;;;;17.80;61.50;;;;;;5019769;28;19924;-59
2021/10/12 06:49:45;;;;;;;;;;;17.80;61.60;;;;;;5020198;28;19913;-63
2021/10/12 06:52:10;;;;;;;;;;;17.80;61.70;;;;;;5021009;28;19917;-59
2021/10/12 06:54:36;;;;;;;;;;;17.80;61.60;;;;;;5019965;28;19992;-60
2021/10/12 06:57:02;;;;;;;;;;;17.80;61.70;;;;;;5019210;28;19929;-62
2021/10/12 06:59:28;;;;;;;;;;;17.80;61.70;;;;;;5002840;28;19963;-61
2021/10/12 07:01:53;;;;;;;;;;;17.80;61.70;;;;;;5021148;28;19913;-61
2021/10/12 07:04:19;;;;;;;;;;;17.80;61.70;;;;;;5001398;28;20414;-59
2021/10/12 07:06:44;;;;;;;;;;;17.80;61.70;;;;;;5020344;28;19917;-62
2021/10/12 07:09:11;;;;;;;;;;;17.80;61.80;;;;;;5020303;28;19914;-62
2021/10/12 07:11:36;;;;;;;;;;;17.80;61.80;;;;;;5019856;28;19929;-59
2021/10/12 07:14:02;;;;;;;;;;;17.80;61.80;;;;;;5019850;28;20437;-57
2021/10/12 07:16:27;;;;;;;;;;;17.80;61.80;;;;;;5019569;28;19919;-61
2021/10/12 07:18:52;;;;;;;;;;;17.80;61.90;;;;;;5020160;28;19964;-61
2021/10/12 07:21:18;;;;;;;;;;;17.80;61.90;;;;;;5019464;28;19948;-60
2021/10/12 07:23:43;;;;;;;;;;;17.80;61.90;;;;;;5000378;28;19922;-62
2021/10/12 07:26:09;;;;;;;;;;;17.80;61.90;;;;;;5019527;28;19987;-62
2021/10/12 07:28:35;;;;;;;;;;;17.80;61.90;;;;;;5001947;28;19920;-63
2021/10/12 07:31:03;;;;;;;;;;;17.80;61.90;;;;;;5020617;28;19935;-61
2021/10/12 07:33:29;;;;;;;;;;;17.80;61.90;;;;;;5020478;28;19999;-63
2021/10/12 07:35:54;;;;;;;;;;;17.90;61.90;;;;;;5020470;28;19996;-62
2021/10/12 07:38:20;;;;;;;;;;;17.90;61.80;;;;;;5019788;28;19926;-62
2021/10/12 07:40:45;;;;;;;;;;;17.90;61.70;;;;;;5020466;28;20012;-60
2021/10/12 07:43:11;;;;;;;;;;;17.80;61.50;;;;;;5020499;28;19920;-59
2021/10/12 07:45:36;;;;;;;;;;;17.80;61.50;;;;;;5018749;28;19917;-61
2021/10/12 07:48:02;;;;;;;;;;;17.90;61.50;;;;;;5016739;28;19916;-61
2021/10/12 07:50:27;;;;;;;;;;;17.80;61.50;;;;;;5005554;28;19914;-59
2021/10/12 07:52:53;;;;;;;;;;;17.80;61.50;;;;;;5017763;28;20042;-60
2021/10/12 07:57:57;;;;;;;;;;;17.80;61.50;;;;;;5012588;28;19918;-59
2021/10/12 08:00:25;;;;;;;;;;;17.80;61.50;;;;;;4971997;28;19913;-62
2021/10/12 08:02:51;;;;;;;;;;;17.80;61.50;;;;;;5000341;28;19953;-62
2021/10/12 08:05:17;;;;;;;;;;;17.80;61.50;;;;;;5006531;28;20000;-60
2021/10/12 08:07:42;;;;;;;;;;;17.80;61.50;;;;;;5018083;28;19975;-60
2021/10/12 08:10:09;;;;;;;;;;;17.80;61.50;;;;;;5004861;28;19913;-60
2021/10/12 08:12:34;;;;;;;;;;;17.80;61.50;;;;;;5018590;28;20429;-62
2021/10/12 08:15:00;;;;;;;;;;;17.80;61.60;;;;;;5005518;28;20612;-60
2021/10/12 08:17:26;;;;;;;;;;;17.80;61.60;;;;;;5018494;28;20378;-62
2021/10/12 08:19:51;;;;;;;;;;;17.80;61.60;;;;;;5007342;28;19932;-60
2021/10/12 08:22:17;;;;;;;;;;;17.80;61.60;;;;;;5018881;28;19913;-61
2021/10/12 08:24:42;;;;;;;;;;;17.80;61.60;;;;;;5007284;28;19913;-58
2021/10/12 08:27:08;;;;;;;;;;;17.80;61.60;;;;;;5017838;28;19917;-60
2021/10/12 08:29:33;;;;;;;;;;;17.80;61.70;;;;;;5006344;28;19921;-62
2021/10/12 08:31:58;;;;;;;;;;;17.80;61.70;;;;;;5017911;28;19928;-62
2021/10/12 08:34:24;;;;;;;;;;;17.80;61.70;;;;;;5006220;28;20375;-60
2021/10/12 08:36:49;;;;;;;;;;;17.80;61.70;;;;;;5017303;28;19917;-58
2021/10/12 08:39:15;;;;;;;;;;;17.80;61.70;;;;;;5007958;28;19914;-58
2021/10/12 08:41:43;;;;;;;;;;;17.90;61.90;;;;;;4985221;28;19921;-60
2021/10/12 08:44:09;;;;;;;;;;;17.80;61.80;;;;;;5002533;28;19919;-58
2021/10/12 08:46:35;;;;;;;;;;;17.80;61.90;;;;;;5017679;28;19957;-59
2021/10/12 08:49:00;;;;;;;;;;;17.80;61.90;;;;;;5006086;28;20001;-61
2021/10/12 08:51:26;;;;;;;;;;;17.80;61.90;;;;;;5017886;28;20283;-60
2021/10/12 08:53:51;;;;;;;;;;;17.80;62.50;;;;;;5007561;28;19957;-60
2021/10/12 08:56:18;;;;;;;;;;;17.80;61.80;;;;;;5016234;28;21275;-58
2021/10/12 08:58:44;;;;;;;;;;;17.80;61.90;;;;;;5008940;28;19917;-60
2021/10/12 09:01:10;;;;;;;;;;;17.80;61.90;;;;;;5021649;28;19924;-59
2021/10/12 09:03:44;;;;;;;;;;;17.80;61.90;;;;;;5019515;28;19913;-61
2021/10/12 09:06:10;;;;;;;;;;;17.80;62.00;;;;;;5022336;28;20298;-61
2021/10/12 09:08:38;;;;;;;;;;;17.80;62.10;;;;;;5020307;28;19920;-60
2021/10/12 09:11:04;;;;;;;;;;;17.80;62.10;;;;;;5021305;28;20409;-59
2021/10/12 09:13:41;;;;;;;;;;;17.80;62.10;;;;;;5021567;28;19927;-62
2021/10/12 09:16:08;;;;;;;;;;;17.80;62.10;;;;;;5021163;28;19913;-58
2021/10/12 09:18:46;;;;;;;;;;;17.80;62.10;;;;;;5005243;28;19967;-61
2021/10/12 09:21:32;;;;;;;;;;;17.80;62.10;;;;;;5022005;28;19913;-61
2021/10/12 09:24:13;;;;;;;;;;;17.90;62.10;;;;;;5009245;28;19917;-62
2021/10/12 09:26:42;;;;;;;;;;;17.80;62.00;;;;;;5020623;28;19929;-62
2021/10/12 09:29:23;;;;;;;;;;;17.80;62.00;;;;;;5009650;28;20374;-60
2021/10/12 09:31:49;;;;;;;;;;;17.80;62.10;;;;;;5021319;28;19948;-61
2021/10/12 09:34:15;;;;;;;;;;;17.80;62.00;;;;;;5008494;28;20209;-61
2021/10/12 09:36:41;;;;;;;;;;;17.80;62.00;;;;;;5020383;28;19929;-60
2021/10/12 09:39:07;;;;;;;;;;;17.80;62.00;;;;;;4993446;28;19913;-60
2021/10/12 09:41:33;;;;;;;;;;;17.80;62.00;;;;;;5004199;28;19913;-61
2021/10/12 09:44:09;;;;;;;;;;;17.80;62.00;;;;;;5009142;28;20356;-59
2021/10/12 09:46:34;;;;;;;;;;;17.80;62.00;;;;;;5021049;28;19917;-60
2021/10/12 09:49:10;;;;;;;;;;;17.80;62.00;;;;;;5008463;28;20718;-61
2021/10/12 09:51:35;;;;;;;;;;;17.80;62.00;;;;;;5020068;28;19914;-61
2021/10/12 09:54:00;;;;;;;;;;;17.80;62.00;;;;;;4993250;28;19920;-61
2021/10/12 09:56:26;;;;;;;;;;;17.80;62.10;;;;;;5020726;28;19919;-61
2021/10/12 09:58:52;;;;;;;;;;;17.80;62.10;;;;;;5007780;28;20337;-59
2021/10/12 10:01:17;;;;;;;;;;;17.80;62.10;;;;;;5020552;28;19916;-60
2021/10/12 10:03:43;;;;;;;;;;;17.80;62.10;;;;;;5009197;28;19913;-61
2021/10/12 10:06:10;;;;;;;;;;;17.80;62.10;;;;;;5019800;28;19917;-62
2021/10/12 10:08:39;;;;;;;;;;;17.80;62.10;;;;;;5019139;28;19963;-60
2021/10/12 10:11:08;;;;;;;;;;;17.80;62.10;;;;;;5009658;28;20272;-61
2021/10/12 10:13:34;;;;;;;;;;;17.80;62.20;;;;;;5002995;28;21302;-58
2021/10/12 10:16:00;;;;;;;;;;;17.80;62.20;;;;;;4988964;28;20016;-60
2021/10/12 10:18:25;;;;;;;;;;;17.80;62.20;;;;;;5003454;28;19917;-62
2021/10/12 10:20:52;;;;;;;;;;;17.80;62.20;;;;;;4991126;28;20414;-62
2021/10/12 10:23:36;;;;;;;;;;;17.80;62.30;;;;;;5021232;28;19920;-62
2021/10/12 10:26:20;;;;;;;;;;;17.80;62.90;;;;;;4993170;28;19917;-60
2021/10/12 10:28:46;;;;;;;;;;;17.80;62.30;;;;;;5007119;28;20328;-61
2021/10/12 10:31:11;;;;;;;;;;;17.80;62.30;;;;;;5002750;28;19913;-61
2021/10/12 10:33:37;;;;;;;;;;;17.80;62.30;;;;;;5010280;28;20137;-61
2021/10/12 10:36:06;;;;;;;;;;;17.80;62.30;;;;;;5017964;28;20293;-61
2021/10/12 10:38:33;;;;;;;;;;;17.80;62.30;;;;;;5002802;28;19967;-61
2021/10/12 10:41:04;;;;;;;;;;;17.80;62.30;;;;;;5006428;28;20004;-60
2021/10/12 10:43:48;;;;;;;;;;;17.80;62.30;;;;;;5021529;28;19913;-61
2021/10/12 10:46:32;;;;;;;;;;;17.80;62.30;;;;;;5020768;28;20295;-59
2021/10/12 10:49:08;;;;;;;;;;;17.80;62.30;;;;;;5005554;28;20007;-62
2021/10/12 10:51:52;;;;;;;;;;;17.80;62.40;;;;;;5016225;28;20035;-59
2021/10/12 10:54:36;;;;;;;;;;;17.80;62.40;;;;;;5007885;28;19994;-61
2021/10/12 10:57:20;;;;;;;;;;;17.80;62.30;;;;;;5016845;28;19917;-59
2021/10/12 10:59:46;;;;;;;;;;;17.80;62.40;;;;;;4999858;28;20385;-62
2021/10/12 11:02:27;;;;;;;;;;;17.80;62.40;;;;;;5020067;28;19967;-61
2021/10/12 11:04:53;;;;;;;;;;;17.80;62.40;;;;;;5003999;28;19964;-61
2021/10/12 11:07:18;;;;;;;;;;;17.80;62.40;;;;;;5019738;28;19920;-59
2021/10/12 11:09:44;;;;;;;;;;;17.80;62.40;;;;;;4989763;28;20613;-61
2021/10/12 11:12:16;;;;;;;;;;;17.80;63.10;;;;;;5018571;28;19952;-62
2021/10/12 11:14:41;;;;;;;;;;;17.80;62.40;;;;;;4990031;28;19944;-61
2021/10/12 11:17:08;;;;;;;;;;;17.80;62.40;;;;;;5019382;28;19913;-62
2021/10/12 11:19:33;;;;;;;;;;;17.80;62.40;;;;;;5009070;28;20392;-59
2021/10/12 11:21:58;;;;;;;;;;;17.80;62.40;;;;;;5001790;28;20721;-60
2021/10/12 11:24:24;;;;;;;;;;;17.80;62.50;;;;;;5007128;28;20332;-59
2021/10/12 11:26:56;;;;;;;;;;;17.80;62.50;;;;;;5001748;28;19975;-59
2021/10/12 11:29:22;;;;;;;;;;;17.80;62.50;;;;;;4990875;28;19920;-60
2021/10/12 11:31:47;;;;;;;;;;;17.80;62.40;;;;;;5020116;28;19971;-60
2021/10/12 11:34:13;;;;;;;;;;;17.80;62.40;;;;;;5007272;28;19913;-62
2021/10/12 11:36:39;;;;;;;;;;;17.70;62.40;;;;;;5001468;28;19917;-59
2021/10/12 11:39:04;;;;;;;;;;;17.80;62.50;;;;;;5009982;28;19921;-61
2021/10/12 11:41:33;;;;;;;;;;;17.80;62.60;;;;;;5018875;28;20372;-61
2021/10/12 11:44:00;;;;;;;;;;;17.80;62.50;;;;;;4988580;28;20424;-60
2021/10/12 11:46:29;;;;;;;;;;;17.80;62.50;;;;;;5019100;28;20437;-62
2021/10/12 11:48:57;;;;;;;;;;;17.80;62.50;;;;;;5009090;28;19980;-60
2021/10/12 11:51:23;;;;;;;;;;;17.80;62.50;;;;;;5019363;28;19913;-60
2021/10/12 11:53:49;;;;;;;;;;;17.80;62.50;;;;;;5010050;28;19913;-62
2021/10/12 11:56:15;;;;;;;;;;;17.80;62.50;;;;;;5002234;28;19930;-62
2021/10/12 11:58:41;;;;;;;;;;;17.80;62.50;;;;;;5009903;28;19917;-62
2021/10/12 12:01:07;;;;;;;;;;;17.80;62.60;;;;;;5018637;28;20293;-61
2021/10/12 12:03:32;;;;;;;;;;;17.80;62.50;;;;;;5020539;28;19913;-63
2021/10/12 12:05:58;;;;;;;;;;;17.80;62.60;;;;;;5007111;28;20321;-62
2021/10/12 12:08:24;;;;;;;;;;;17.80;62.50;;;;;;5020089;28;19919;-62
2021/10/12 12:10:49;;;;;;;;;;;17.80;62.60;;;;;;4989264;28;19917;-60
2021/10/12 12:13:14;;;;;;;;;;;17.80;62.50;;;;;;5001686;28;19929;-61
2021/10/12 12:15:40;;;;;;;;;;;17.80;62.60;;;;;;4989547;28;20004;-61
2021/10/12 12:18:15;;;;;;;;;;;17.80;62.60;;;;;;5001676;28;19928;-59
2021/10/12 12:20:59;;;;;;;;;;;17.80;62.50;;;;;;5007081;28;19917;-61
2021/10/12 12:23:32;;;;;;;;;;;17.80;62.60;;;;;;5016739;28;19917;-61
2021/10/12 12:25:57;;;;;;;;;;;17.70;62.50;;;;;;4990770;28;19924;-62
2021/10/12 12:28:23;;;;;;;;;;;17.80;62.60;;;;;;5019094;28;20326;-62
2021/10/12 12:30:48;;;;;;;;;;;17.80;62.70;;;;;;5005453;28;19914;-61
2021/10/12 12:33:14;;;;;;;;;;;17.80;62.50;;;;;;5004818;28;19968;-61
2021/10/12 12:35:39;;;;;;;;;;;17.80;62.50;;;;;;5011981;28;19913;-60
2021/10/12 12:38:05;;;;;;;;;;;17.80;62.60;;;;;;5025422;28;20185;-61
2021/10/12 12:40:31;;;;;;;;;;;17.80;62.60;;;;;;5014165;28;19913;-61
2021/10/12 12:42:56;;;;;;;;;;;17.80;62.50;;;;;;5025564;28;19925;-60
2021/10/12 12:45:22;;;;;;;;;;;17.80;62.60;;;;;;5013332;28;19920;-60
2021/10/12 12:47:54;;;;;;;;;;;17.80;62.60;;;;;;5024425;28;19914;-63
2021/10/12 12:50:29;;;;;;;;;;;17.80;62.50;;;;;;5014199;28;19920;-59
2021/10/12 12:52:55;;;;;;;;;;;17.80;62.60;;;;;;5021353;28;19975;-60
2021/10/12 12:55:33;;;;;;;;;;;17.80;62.50;;;;;;4987070;28;20294;-61
2021/10/12 12:57:59;;;;;;;;;;;17.80;62.60;;;;;;5025238;28;19921;-61
2021/10/12 13:00:24;;;;;;;;;;;17.80;62.60;;;;;;5013683;28;19917;-60
2021/10/12 13:02:56;;;;;;;;;;;17.80;62.60;;;;;;5024610;28;20654;-62
2021/10/12 13:05:22;;;;;;;;;;;17.80;62.60;;;;;;5013200;28;19913;-61
2021/10/12 13:07:51;;;;;;;;;;;17.80;62.60;;;;;;5025866;28;19979;-61
2021/10/12 13:10:16;;;;;;;;;;;17.80;62.60;;;;;;5013319;28;20803;-61
2021/10/12 13:12:46;;;;;;;;;;;17.70;62.50;;;;;;5006104;28;19921;-62
2021/10/12 13:15:12;;;;;;;;;;;17.80;62.60;;;;;;5011596;28;19929;-60
2021/10/12 13:17:37;;;;;;;;;;;17.80;62.60;;;;;;5024794;28;20530;-58
2021/10/12 13:20:03;;;;;;;;;;;17.80;62.60;;;;;;5010678;28;19913;-62
2021/10/12 13:22:28;;;;;;;;;;;17.80;62.60;;;;;;5024753;28;20627;-60
2021/10/12 13:24:54;;;;;;;;;;;17.80;62.60;;;;;;5012273;28;19917;-61
2021/10/12 13:27:19;;;;;;;;;;;17.80;62.60;;;;;;5024017;28;19917;-61
2021/10/12 13:29:46;;;;;;;;;;;17.80;62.60;;;;;;4976501;28;20325;-60
2021/10/12 13:32:12;;;;;;;;;;;17.80;62.60;;;;;;5025377;28;19920;-62
2021/10/12 13:34:37;;;;;;;;;;;17.80;62.60;;;;;;5024780;28;19913;-61
2021/10/12 13:37:03;;;;;;;;;;;17.80;62.60;;;;;;5024198;28;19992;-63
2021/10/12 13:39:28;;;;;;;;;;;17.70;62.60;;;;;;5025235;28;19921;-61
2021/10/12 13:41:55;;;;;;;;;;;17.80;62.60;;;;;;5025480;28;20549;-60
2021/10/12 13:44:20;;;;;;;;;;;17.80;62.60;;;;;;5023641;28;19948;-62
2021/10/12 13:46:46;;;;;;;;;;;17.80;62.60;;;;;;5021410;28;20456;-60
2021/10/12 13:49:11;;;;;;;;;;;17.80;62.60;;;;;;5021824;28;19914;-61
2021/10/12 13:51:40;;;;;;;;;;;17.80;62.60;;;;;;5018020;28;19917;-61
2021/10/12 13:54:05;;;;;;;;;;;17.80;62.60;;;;;;5004356;28;19914;-61
2021/10/12 13:56:31;;;;;;;;;;;17.80;62.60;;;;;;5003963;28;19928;-60
2021/10/12 13:58:56;;;;;;;;;;;17.80;62.60;;;;;;5003899;28;20031;-62
2021/10/12 14:01:22;;;;;;;;;;;17.80;62.70;;;;;;5022065;28;20548;-62
2021/10/12 14:03:48;;;;;;;;;;;17.80;62.60;;;;;;5021634;28;19913;-62
2021/10/12 14:06:14;;;;;;;;;;;17.80;62.60;;;;;;5004500;28;20393;-60
2021/10/12 14:08:40;;;;;;;;;;;17.80;62.60;;;;;;5022466;28;19913;-60
2021/10/12 14:11:05;;;;;;;;;;;17.70;62.60;;;;;;5022212;28;19936;-61
2021/10/12 14:13:31;;;;;;;;;;;17.80;62.70;;;;;;5022711;28;19921;-58
2021/10/12 14:15:57;;;;;;;;;;;17.80;62.70;;;;;;5022115;28;19947;-60